Time;durP1;ratioP1;P1;durP2;ratioP2;P2;SDS_P1;SDS_P2;PMS_P1;PMS_P2;Temp;Humidity;BMP_temperature;BMP_pressure;BME280_temperature;BME280_humidity;BME280_pressure;Samples;Min_cycle;Max_cycle;Signal;HPM_P1;HPM_P2
2021/12/20 00:04:15;;;;;;;36.92;17.20;;;;;;;-1.57;79.69;96707.34;10288810;28;98654;-64
2021/12/20 00:09:18;;;;;;;35.95;17.15;;;;;;;-1.52;79.35;96701.16;10287014;28;97036;-65
2021/12/20 00:14:22;;;;;;;34.50;16.38;;;;;;;-1.55;79.01;96696.16;10291146;28;97253;-65
2021/12/20 00:19:25;;;;;;;34.97;16.63;;;;;;;-1.53;79.59;96686.66;10296572;28;96761;-64
2021/12/20 00:24:28;;;;;;;36.60;16.27;;;;;;;-1.49;78.89;96677.94;10295577;28;96729;-64
2021/12/20 00:29:33;;;;;;;33.70;16.13;;;;;;;-1.50;79.67;96671.19;10292600;28;97251;-65
2021/12/20 00:34:36;;;;;;;34.67;16.75;;;;;;;-1.47;80.11;96665.06;10297540;28;97344;-65
2021/12/20 00:45:01;;;;;;;38.25;17.45;;;;;;;-1.42;80.10;96662.31;10282176;28;97026;-65
2021/12/20 00:50:04;;;;;;;36.92;16.00;;;;;;;-1.40;79.34;96665.66;10288659;28;97599;-65
2021/12/20 00:55:08;;;;;;;34.03;15.55;;;;;;;-1.41;79.33;96669.09;10287326;28;96930;-65
2021/12/20 01:00:16;;;;;;;35.85;16.05;;;;;;;-1.41;79.23;96669.09;10286928;28;96884;-64
2021/12/20 01:05:20;;;;;;;34.63;15.85;;;;;;;-1.43;79.98;96666.63;10275498;28;98827;-64
2021/12/20 01:10:24;;;;;;;35.83;17.30;;;;;;;-1.50;80.20;96655.78;10290083;28;96849;-65
2021/12/20 01:15:33;;;;;;;39.90;16.67;;;;;;;-1.49;79.79;96660.00;10285348;28;97384;-65
2021/12/20 01:20:37;;;;;;;36.83;17.38;;;;;;;-1.43;79.94;96656.38;10287363;28;98149;-65
2021/12/20 01:25:40;;;;;;;37.80;15.85;;;;;;;-1.42;79.34;96649.50;10288001;28;97002;-65
2021/12/20 01:30:44;;;;;;;34.28;16.10;;;;;;;-1.39;79.24;96645.09;10290294;28;96744;-64
2021/12/20 01:35:47;;;;;;;34.20;16.77;;;;;;;-1.40;79.70;96643.41;10292885;28;97290;-65
2021/12/20 01:40:50;;;;;;;34.13;16.10;;;;;;;-1.38;80.10;96643.34;10300174;28;97398;-65
2021/12/20 01:45:55;;;;;;;36.60;17.27;;;;;;;-1.38;79.71;96656.16;10296796;28;97889;-65
2021/12/20 01:56:28;;;;;;;32.47;15.25;;;;;;;-1.34;79.81;96662.84;10285175;28;96828;-65
2021/12/20 02:01:33;;;;;;;39.20;17.35;;;;;;;-1.30;80.32;96669.50;10299637;28;97285;-65
2021/12/20 02:06:38;;;;;;;33.07;16.60;;;;;;;-1.26;79.08;96663.34;10300931;28;98516;-65
2021/12/20 02:11:44;;;;;;;35.35;15.75;;;;;;;-1.14;79.03;96662.81;10296703;28;96942;-65
2021/12/20 02:16:48;;;;;;;;;;;;;;;-1.12;79.50;96666.16;10298310;28;96847;-65
2021/12/20 02:21:52;;;;;;;32.72;14.98;;;;;;;-1.22;79.21;96671.72;10301625;28;98495;-65
2021/12/20 02:26:55;;;;;;;33.03;15.63;;;;;;;-1.29;80.04;96668.63;10294814;28;97347;-64
2021/12/20 02:37:27;;;;;;;35.67;16.27;;;;;;;-1.21;79.97;96656.28;10295869;28;98776;-65
2021/12/20 02:42:36;;;;;;;33.03;17.27;;;;;;;-1.17;79.01;96647.59;10290700;28;96899;-64
2021/12/20 02:47:41;;;;;;;32.30;15.90;;;;;;;-1.08;79.91;96652.31;10289547;28;97474;-65
2021/12/20 02:52:45;;;;;;;32.03;14.75;;;;;;;-1.04;78.98;96647.88;10293779;28;99467;-65
2021/12/20 02:57:48;;;;;;;35.80;15.90;;;;;;;-1.12;79.59;96640.53;10290921;28;96857;-65
2021/12/20 03:02:51;;;;;;;35.05;16.00;;;;;;;-1.16;79.08;96630.47;10289162;28;97048;-65
2021/12/20 03:07:56;;;;;;;34.40;15.50;;;;;;;-1.13;78.71;96620.91;10293259;28;96933;-65
2021/12/20 03:12:59;;;;;;;29.57;15.20;;;;;;;-0.99;78.58;96633.13;10288836;28;96935;-65
2021/12/20 03:18:02;;;;;;;32.22;15.38;;;;;;;-1.11;79.67;96629.34;10291905;28;98625;-65
2021/12/20 03:23:06;;;;;;;29.23;15.02;;;;;;;-1.16;78.75;96630.47;10299147;28;96830;-65
2021/12/20 03:28:09;;;;;;;32.53;15.40;;;;;;;-1.18;79.99;96619.44;10299270;28;98923;-65
2021/12/20 03:33:12;;;;;;;33.65;15.27;;;;;;;-1.23;79.53;96619.63;10293849;28;96890;-64
2021/12/20 03:38:16;;;;;;;33.38;16.52;;;;;;;-1.28;79.23;96619.00;10297396;28;96901;-65
2021/12/20 03:43:19;;;;;;;30.15;14.88;;;;;;;-1.35;79.95;96622.72;10296506;28;96908;-65
2021/12/20 03:48:21;;;;;;;33.92;15.77;;;;;;;-1.38;80.12;96610.03;10293760;28;96697;-65
2021/12/20 03:53:26;;;;;;;36.45;15.88;;;;;;;-1.34;80.48;96609.03;10295257;28;97346;-64
2021/12/20 03:58:29;;;;;;;35.70;16.08;;;;;;;-1.33;80.32;96616.63;10294488;28;97652;-65
2021/12/20 04:03:34;;;;;;;35.55;16.30;;;;;;;-1.27;78.89;96611.25;10292184;28;97369;-65
2021/12/20 04:08:40;;;;;;;34.67;17.33;;;;;;;-1.27;80.07;96620.69;10291779;28;97964;-65
2021/12/20 04:13:43;;;;;;;;;;;;;;;-1.25;80.32;96611.19;10300066;28;96692;-65
2021/12/20 04:18:46;;;;;;;34.85;17.40;;;;;;;-1.29;78.89;96609.66;10292857;28;96890;-65
2021/12/20 04:23:50;;;;;;;35.13;17.63;;;;;;;-1.34;79.64;96609.03;10293434;28;96732;-65
2021/12/20 04:28:53;;;;;;;34.30;15.05;;;;;;;-1.35;79.25;96603.03;10295474;28;96943;-65
2021/12/20 04:33:56;;;;;;;33.30;15.88;;;;;;;-1.31;80.02;96608.88;10292771;28;97002;-64
2021/12/20 04:39:01;;;;;;;35.88;17.05;;;;;;;-1.31;79.49;96611.44;10291751;28;100661;-65
2021/12/20 04:44:05;;;;;;;32.97;17.85;;;;;;;-1.25;80.02;96618.88;10291206;28;98875;-65
2021/12/20 04:49:08;;;;;;;37.80;17.20;;;;;;;-1.22;79.07;96612.78;10286875;28;96767;-65
2021/12/20 04:54:12;;;;;;;31.88;16.25;;;;;;;-1.23;79.65;96611.13;10288388;28;96856;-64
2021/12/20 04:59:15;;;;;;;33.38;16.17;;;;;;;-1.20;79.97;96622.06;10288599;28;96871;-64
2021/12/20 05:04:18;;;;;;;37.55;17.42;;;;;;;-1.18;79.70;96624.56;10288258;28;98781;-65
2021/12/20 05:09:25;;;;;;;34.88;16.95;;;;;;;-1.21;79.39;96628.09;10286896;28;97019;-65
2021/12/20 05:14:28;;;;;;;32.22;16.17;;;;;;;-1.32;80.45;96630.28;10306538;28;98135;-65
2021/12/20 05:19:31;;;;;;;36.92;17.67;;;;;;;-1.29;80.27;96632.72;10299623;28;96800;-65
2021/12/20 05:24:35;;;;;;;35.88;17.08;;;;;;;-1.30;79.93;96623.38;10301717;28;96847;-65
2021/12/20 05:29:38;;;;;;;33.63;16.15;;;;;;;-1.30;79.57;96626.75;10296521;28;98052;-65
2021/12/20 05:34:41;;;;;;;35.22;16.95;;;;;;;-1.28;79.57;96611.31;10299460;28;96983;-65
2021/12/20 05:39:46;;;;;;;35.72;17.30;;;;;;;-1.28;79.90;96621.56;10300149;28;96728;-65
2021/12/20 05:44:50;;;;;;;32.63;16.15;;;;;;;-1.30;79.31;96616.50;10299622;28;97231;-65
2021/12/20 05:49:53;;;;;;;32.63;16.17;;;;;;;-1.32;79.75;96617.47;10293145;28;96886;-65
2021/12/20 05:54:58;;;;;;;34.03;16.80;;;;;;;-1.35;79.50;96612.47;10300108;28;96948;-65
2021/12/20 06:00:01;;;;;;;34.17;16.92;;;;;;;-1.33;79.66;96616.63;10298004;28;97286;-65
2021/12/20 06:05:04;;;;;;;34.85;16.63;;;;;;;-1.32;80.12;96623.44;10294004;28;97597;-65
2021/12/20 06:10:13;;;;;;;33.47;16.42;;;;;;;-1.20;80.07;96616.13;10300638;28;97099;-65
2021/12/20 06:15:16;;;;;;;40.53;17.25;;;;;;;-1.23;79.37;96622.19;10294335;28;97017;-65
2021/12/20 06:20:19;;;;;;;34.50;17.45;;;;;;;-1.20;79.05;96616.94;10299953;28;96932;-66
2021/12/20 06:25:25;;;;;;;37.95;18.10;;;;;;;-1.29;80.46;96625.03;10298141;28;96996;-65
2021/12/20 06:30:28;;;;;;;37.65;18.20;;;;;;;-1.28;79.16;96624.94;10284860;28;98966;-65
2021/12/20 06:35:30;;;;;;;34.88;17.50;;;;;;;-1.23;79.02;96621.38;10292255;28;98007;-65
2021/12/20 06:40:36;;;;;;;34.42;17.27;;;;;;;-1.20;79.61;96618.69;10292556;28;98535;-65
2021/12/20 06:45:39;;;;;;;31.85;16.85;;;;;;;-1.28;78.95;96613.88;10290303;28;97908;-66
2021/12/20 06:50:42;;;;;;;33.15;16.50;;;;;;;-1.26;80.16;96619.75;10291614;28;96803;-65
2021/12/20 06:55:46;;;;;;;34.88;16.35;;;;;;;-1.31;79.80;96616.56;10293406;28;98127;-66
2021/12/20 07:00:49;;;;;;;37.55;17.95;;;;;;;-1.30;80.30;96629.31;10291302;28;97957;-66
2021/12/20 07:05:52;;;;;;;39.72;18.52;;;;;;;-1.31;79.98;96629.38;10289484;28;98227;-65
2021/12/20 07:10:57;;;;;;;33.42;16.30;;;;;;;-1.23;80.02;96627.31;10292064;28;98354;-66
2021/12/20 07:16:00;;;;;;;31.17;16.57;;;;;;;-1.11;79.90;96626.78;10291489;28;97079;-65
2021/12/20 07:21:03;;;;;;;32.75;16.42;;;;;;;-1.08;79.51;96626.66;10291968;28;98654;-65
2021/12/20 07:26:10;;;;;;;32.20;16.55;;;;;;;-0.97;79.24;96639.00;10298317;28;96712;-66
2021/12/20 07:31:14;;;;;;;28.60;15.52;;;;;;;-0.90;78.54;96634.44;10297731;28;98043;-66
2021/12/20 07:36:20;;;;;;;33.15;16.63;;;;;;;-0.85;79.08;96637.66;10293717;28;97065;-65
2021/12/20 07:41:24;;;;;;;33.45;17.00;;;;;;;-0.84;78.62;96629.06;10301754;28;98338;-66
2021/12/20 07:46:27;;;;;;;33.67;17.25;;;;;;;-0.75;78.42;96643.22;10296135;28;96843;-66
2021/12/20 07:51:30;;;;;;;31.95;16.15;;;;;;;-0.79;79.03;96639.09;10284110;28;98242;-66
2021/12/20 07:56:35;;;;;;;33.47;16.83;;;;;;;-0.91;78.97;96643.03;10287179;28;101251;-66
2021/12/20 08:01:38;;;;;;;35.15;17.23;;;;;;;-1.05;79.10;96641.06;10290784;28;96959;-66
2021/12/20 08:06:42;;;;;;;32.05;16.25;;;;;;;-1.07;78.63;96648.00;10286495;28;96945;-66
2021/12/20 08:11:48;;;;;;;31.10;16.23;;;;;;;-1.11;79.20;96655.00;10279880;28;97451;-65
2021/12/20 08:16:51;;;;;;;31.73;16.17;;;;;;;-1.02;78.00;96664.03;10280751;28;97654;-66
2021/12/20 08:21:54;;;;;;;29.00;16.48;;;;;;;-1.02;78.04;96664.03;10281580;28;97342;-66
2021/12/20 08:26:58;;;;;;;31.98;16.13;;;;;;;-1.04;77.87;96665.81;10285520;28;97681;-65
2021/12/20 08:32:02;;;;;;;30.85;14.82;;;;;;;-1.17;78.69;96667.25;10293823;28;96901;-66
2021/12/20 08:37:05;;;;;;;30.52;15.88;;;;;;;-1.13;79.09;96663.66;10289595;28;96877;-66
2021/12/20 08:42:10;;;;;;;31.52;15.57;;;;;;;-1.23;78.26;96677.78;10288592;28;98951;-66
2021/12/20 08:47:12;;;;;;;32.42;15.13;;;;;;;-1.32;79.36;96679.00;10273903;28;98145;-65
2021/12/20 08:52:16;;;;;;;30.23;14.05;;;;;;;-1.48;78.80;96679.63;10300489;28;97032;-66
2021/12/20 08:57:20;;;;;;;24.77;13.82;;;;;;;-1.53;79.86;96681.53;10296101;28;96939;-66
2021/12/20 09:02:25;;;;;;;32.67;17.02;;;;;;;-1.47;78.95;96681.28;10294911;28;97576;-66
2021/12/20 09:07:28;;;;;;;30.48;14.63;;;;;;;-1.55;79.07;96696.16;10295518;28;99488;-65
2021/12/20 09:12:33;;;;;;;31.25;16.20;;;;;;;-1.68;79.39;96698.34;10290440;28;97453;-66
2021/12/20 09:17:35;;;;;;;32.17;15.13;;;;;;;-1.72;78.96;96701.13;10285868;28;99868;-65
2021/12/20 09:22:49;;;;;;;30.17;14.77;;;;;;;-1.73;80.18;96704.56;10292591;28;99255;-66
2021/12/20 09:27:55;;;;;;;31.73;14.80;;;;;;;-1.70;78.88;96701.88;10290902;28;99251;-66
2021/12/20 09:32:58;;;;;;;30.55;15.80;;;;;;;-1.46;79.02;96706.00;10292605;28;96937;-66
2021/12/20 09:38:05;;;;;;;27.48;14.52;;;;;;;-1.44;79.15;96711.09;10292971;28;97704;-65
2021/12/20 09:43:12;;;;;;;27.65;13.30;;;;;;;-1.37;78.36;96709.94;10296140;28;97883;-66
2021/12/20 09:48:14;;;;;;;26.58;13.40;;;;;;;-1.38;78.50;96717.69;10294006;28;99532;-66
2021/12/20 09:53:17;;;;;;;23.13;12.38;;;;;;;-1.36;77.85;96718.44;10298902;28;103310;-66
2021/12/20 09:58:25;;;;;;;24.98;11.77;;;;;;;-1.39;77.85;96718.59;10291645;28;96882;-65
2021/12/20 10:03:28;;;;;;;24.77;12.63;;;;;;;-1.43;77.89;96725.56;10291261;28;102729;-66
2021/12/20 10:08:34;;;;;;;25.20;12.13;;;;;;;-1.41;77.75;96717.78;10292894;28;96752;-66
2021/12/20 10:13:38;;;;;;;28.42;13.15;;;;;;;-1.29;77.95;96718.16;10294543;28;97032;-66
2021/12/20 10:18:41;;;;;;;29.43;13.87;;;;;;;-1.20;77.32;96724.63;10290685;28;98188;-65
2021/12/20 10:23:46;;;;;;;27.23;13.38;;;;;;;-1.09;77.58;96716.47;10290453;28;96718;-66
2021/12/20 10:28:53;;;;;;;27.55;12.30;;;;;;;-1.00;77.25;96705.00;10293704;28;98599;-66
2021/12/20 10:33:58;;;;;;;21.75;11.93;;;;;;;-1.21;77.28;96707.56;10291295;28;96952;-66
2021/12/20 10:39:04;;;;;;;25.08;12.32;;;;;;;-1.35;77.64;96699.63;10290416;28;96996;-66
2021/12/20 10:44:16;;;;;;;25.07;13.27;;;;;;;-1.46;78.32;96700.06;10293189;28;99509;-66
2021/12/20 10:49:26;;;;;;;27.33;13.13;;;;;;;-1.55;78.47;96691.03;10297815;28;96909;-66
2021/12/20 10:54:32;;;;;;;28.98;13.82;;;;;;;-1.58;79.14;96683.47;10287170;28;96804;-66
2021/12/20 10:59:38;;;;;;;28.30;13.93;;;;;;;-1.63;78.99;96685.38;10290116;28;96911;-66
2021/12/20 11:04:48;;;;;;;25.52;13.85;;;;;;;-1.58;78.94;96688.56;10289532;28;100037;-66
2021/12/20 11:09:55;;;;;;;25.92;12.73;;;;;;;-1.59;78.93;96692.03;10283485;28;97214;-66
2021/12/20 11:15:02;;;;;;;28.88;14.68;;;;;;;-1.51;77.67;96690.00;10289326;28;97416;-66
2021/12/20 11:20:06;;;;;;;25.17;13.80;;;;;;;-1.44;78.74;96684.63;10287366;28;97601;-66
2021/12/20 11:25:11;;;;;;;27.93;13.50;;;;;;;-1.46;77.69;96682.94;10293338;28;96821;-65
2021/12/20 11:30:18;;;;;;;27.77;12.70;;;;;;;-1.52;78.62;96678.09;10299085;28;97443;-65
2021/12/20 11:35:24;;;;;;;24.83;12.85;;;;;;;-1.43;78.54;96686.28;10289893;28;96945;-66
2021/12/20 11:40:27;;;;;;;25.20;12.70;;;;;;;-1.41;78.06;96681.91;10291440;28;96904;-66
2021/12/20 11:45:34;;;;;;;21.73;11.50;;;;;;;-1.23;77.48;96683.72;10287915;28;97607;-65
2021/12/20 11:50:39;;;;;;;21.95;11.48;;;;;;;-1.17;76.94;96678.34;10286455;28;96823;-65
2021/12/20 11:55:50;;;;;;;24.67;12.63;;;;;;;-1.08;77.00;96675.38;10292420;28;97075;-66
2021/12/20 12:00:55;;;;;;;;;;;;;;;-0.96;77.19;96671.47;10293034;28;104566;-66
2021/12/20 12:06:00;;;;;;;19.55;11.13;;;;;;;-0.91;77.28;96666.97;10289699;28;96996;-66
2021/12/20 12:11:29;;;;;;;25.77;12.98;;;;;;;-0.77;77.23;96671.50;10292244;28;96801;-66
2021/12/20 12:16:58;;;;;;;23.38;12.27;;;;;;;-0.63;76.27;96654.63;10290412;28;98241;-66
2021/12/20 12:22:02;;;;;;;25.92;12.70;;;;;;;-0.61;77.15;96660.56;10280282;28;97045;-66
2021/12/20 12:27:20;;;;;;;24.83;11.95;;;;;;;-0.63;76.49;96652.06;10286594;28;96991;-66
2021/12/20 12:32:24;;;;;;;23.52;12.80;;;;;;;-0.68;76.57;96651.44;10290276;28;96787;-66
2021/12/20 12:37:33;;;;;;;22.63;11.80;;;;;;;-0.65;76.22;96648.75;10287080;28;97205;-66
2021/12/20 12:42:47;;;;;;;21.23;11.18;;;;;;;-0.61;76.83;96638.28;10279214;28;96931;-65
2021/12/20 12:47:59;;;;;;;25.58;12.88;;;;;;;-0.76;76.64;96637.22;10287043;28;97594;-66
2021/12/20 12:53:02;;;;;;;22.73;11.73;;;;;;;-0.63;76.22;96639.22;10281574;28;98789;-65
2021/12/20 12:58:23;;;;;;;20.05;12.00;;;;;;;-0.65;76.54;96623.09;10294328;28;96942;-66
2021/12/20 13:03:30;;;;;;;22.40;11.95;;;;;;;-0.61;76.75;96619.50;10285964;28;98956;-66
2021/12/20 13:08:33;;;;;;;22.75;11.93;;;;;;;-0.64;76.80;96627.31;10282510;28;97884;-66
2021/12/20 13:13:42;;;;;;;23.00;12.82;;;;;;;-0.73;76.27;96619.13;10293658;28;98412;-66
2021/12/20 13:18:48;;;;;;;22.88;12.85;;;;;;;-0.74;77.15;96617.47;10283922;28;96804;-66
2021/12/20 13:23:52;;;;;;;20.88;11.23;;;;;;;-0.76;76.72;96611.56;10284783;28;98833;-65
2021/12/20 13:28:57;;;;;;;21.33;11.25;;;;;;;-0.96;76.19;96609.06;10288858;28;96877;-66
2021/12/20 13:34:04;;;;;;;22.10;11.23;;;;;;;-1.01;76.56;96608.47;10288444;28;97663;-66
2021/12/20 13:39:09;;;;;;;22.17;11.35;;;;;;;-0.90;76.81;96604.50;10288447;28;96793;-66
2021/12/20 13:44:15;;;;;;;;;;;;;;;-0.79;76.85;96601.47;10297895;28;96783;-65
2021/12/20 13:49:26;;;;;;;22.67;11.10;;;;;;;-0.98;76.84;96596.34;10292521;28;96891;-66
2021/12/20 13:54:32;;;;;;;22.27;11.85;;;;;;;-0.93;76.81;96596.09;10291325;28;96846;-66
2021/12/20 13:59:38;;;;;;;19.77;10.65;;;;;;;-0.99;76.17;96593.84;10291613;28;96883;-66
2021/12/20 14:04:45;;;;;;;23.02;12.38;;;;;;;-1.01;76.11;96601.59;10293065;28;96907;-65
2021/12/20 14:09:59;;;;;;;22.70;12.00;;;;;;;-1.08;76.33;96603.59;10293144;28;97112;-66
2021/12/20 14:15:07;;;;;;;23.15;11.52;;;;;;;-1.08;76.13;96601.03;10292161;28;97229;-66
2021/12/20 14:20:11;;;;;;;21.05;11.40;;;;;;;-0.91;75.66;96594.31;10294168;28;96810;-65
2021/12/20 14:25:18;;;;;;;16.63;9.93;;;;;;;-1.02;75.76;96588.84;10294788;28;96897;-66
2021/12/20 14:30:23;;;;;;;19.38;10.63;;;;;;;-0.97;76.28;96602.28;10290087;28;98796;-66
2021/12/20 14:35:30;;;;;;;20.67;10.70;;;;;;;-0.95;75.92;96595.34;10290260;28;98687;-65
2021/12/20 14:40:43;;;;;;;18.50;10.57;;;;;;;-0.94;75.90;96602.16;10285715;28;98935;-66
2021/12/20 14:45:50;;;;;;;21.27;11.35;;;;;;;-0.95;75.90;96597.91;10294677;28;97398;-65
2021/12/20 14:50:55;;;;;;;23.33;11.32;;;;;;;-0.93;75.63;96588.41;10285293;28;97879;-66
2021/12/20 14:56:06;;;;;;;;;;;;;;;-0.98;75.80;96595.47;10296847;28;97729;-66
2021/12/20 15:01:09;;;;;;;19.20;10.48;;;;;;;-0.99;75.83;96583.56;10287796;28;98551;-65
2021/12/20 15:06:13;;;;;;;18.80;11.18;;;;;;;-1.00;75.91;96592.97;10294342;28;97146;-66
2021/12/20 15:11:17;;;;;;;17.83;10.57;;;;;;;-0.92;76.32;96595.22;10290091;28;97245;-66
2021/12/20 15:16:19;;;;;;;19.27;10.85;;;;;;;-0.91;75.48;96597.72;10288633;28;101403;-66
2021/12/20 15:21:24;;;;;;;16.73;10.00;;;;;;;-0.93;75.65;96596.09;10299459;28;97094;-66
2021/12/20 15:26:27;;;;;;;17.65;10.00;;;;;;;-0.85;75.89;96576.09;10285073;28;98664;-66
2021/12/20 15:31:32;;;;;;;17.20;10.20;;;;;;;-0.87;76.35;96580.47;10285305;28;99469;-66
2021/12/20 15:36:36;;;;;;;16.45;9.60;;;;;;;-0.81;75.82;96585.28;10287320;28;96920;-66
2021/12/20 15:41:40;;;;;;;17.10;10.40;;;;;;;-0.81;75.50;96587.84;10290679;28;101323;-66
2021/12/20 15:46:42;;;;;;;16.60;9.55;;;;;;;-0.81;76.36;96589.59;10289267;28;97056;-66
2021/12/20 15:51:47;;;;;;;16.83;9.68;;;;;;;-0.77;75.36;96579.13;10287021;28;97374;-66
2021/12/20 15:56:49;;;;;;;16.17;9.25;;;;;;;-0.76;75.21;96580.78;10288770;28;96965;-66
2021/12/20 16:01:56;;;;;;;15.30;9.70;;;;;;;-0.76;75.13;96567.97;10288832;28;97827;-66
2021/12/20 16:07:00;;;;;;;17.10;10.60;;;;;;;-0.72;75.18;96577.19;10290630;28;98331;-66
2021/12/20 16:12:03;;;;;;;17.35;10.73;;;;;;;-0.69;76.23;96585.66;10287435;28;97332;-66
2021/12/20 16:17:06;;;;;;;17.40;10.30;;;;;;;-0.71;75.19;96588.28;10292740;28;96762;-66
2021/12/20 16:22:10;;;;;;;16.40;9.40;;;;;;;-0.70;75.83;96584.81;10295500;28;98591;-66
2021/12/20 16:27:13;;;;;;;15.68;9.57;;;;;;;-0.69;75.74;96591.59;10283284;28;96889;-66
2021/12/20 16:32:20;;;;;;;17.35;10.65;;;;;;;-0.70;75.36;96597.66;10289993;28;96989;-65
2021/12/20 16:37:25;;;;;;;18.00;10.57;;;;;;;-0.71;75.66;96583.16;10291435;28;99669;-66
2021/12/20 16:42:27;;;;;;;16.77;9.70;;;;;;;-0.74;76.32;96586.69;10284781;28;96923;-66
2021/12/20 16:47:37;;;;;;;18.80;10.93;;;;;;;-0.73;75.60;96588.34;10283907;28;98566;-66
2021/12/20 16:52:41;;;;;;;16.40;10.27;;;;;;;-0.69;75.23;96588.22;10286062;28;97016;-66
2021/12/20 16:57:44;;;;;;;15.70;9.98;;;;;;;-0.62;75.96;96579.34;10286677;28;96814;-66
2021/12/20 17:02:54;;;;;;;16.50;10.35;;;;;;;-0.58;75.61;96589.41;10281705;28;96787;-65
2021/12/20 17:07:58;;;;;;;19.15;9.93;;;;;;;-0.54;74.99;96595.22;10287066;28;97658;-66
2021/12/20 17:13:01;;;;;;;16.53;9.90;;;;;;;-0.48;75.74;96594.09;10286219;28;96955;-66
2021/12/20 17:18:04;;;;;;;17.52;9.98;;;;;;;-0.48;75.27;96594.91;10293533;28;98601;-65
2021/12/20 17:23:08;;;;;;;16.40;10.40;;;;;;;-0.42;75.35;96592.06;10297068;28;96854;-66
2021/12/20 17:28:12;;;;;;;17.75;9.85;;;;;;;-0.36;75.52;96589.19;10297181;28;99199;-66
2021/12/20 17:33:15;;;;;;;16.95;10.55;;;;;;;-0.27;74.99;96587.94;10297285;28;97651;-66
2021/12/20 17:38:19;;;;;;;19.42;11.05;;;;;;;-0.20;74.69;96591.06;10294212;28;97055;-66
2021/12/20 17:43:22;;;;;;;21.48;12.40;;;;;;;-0.16;74.54;96590.00;10294092;28;96897;-65
2021/12/20 17:48:25;;;;;;;19.38;11.82;;;;;;;-0.18;74.79;96591.81;10289719;28;97098;-66
2021/12/20 17:53:29;;;;;;;22.00;12.73;;;;;;;-0.14;75.28;96590.78;10290922;28;96887;-65
2021/12/20 17:58:33;;;;;;;21.75;13.02;;;;;;;-0.14;74.75;96594.16;10302677;28;97826;-65
2021/12/20 18:03:35;;;;;;;26.17;13.65;;;;;;;-0.19;74.94;96582.44;10292460;28;97016;-65
2021/12/20 18:08:41;;;;;;;19.27;11.90;;;;;;;-0.25;75.02;96595.56;10293057;28;103981;-66
2021/12/20 18:13:43;;;;;;;20.20;11.63;;;;;;;-0.20;75.66;96591.06;10297046;28;97013;-66
2021/12/20 18:18:46;;;;;;;19.67;10.98;;;;;;;-0.25;75.27;96595.56;10296648;28;98340;-66
2021/12/20 18:23:50;;;;;;;18.08;10.85;;;;;;;-0.33;76.03;96594.19;10289365;28;97826;-66
2021/12/20 18:28:54;;;;;;;20.73;11.68;;;;;;;-0.29;75.55;96592.31;10287565;28;98726;-66
2021/12/20 18:33:57;;;;;;;18.73;11.45;;;;;;;-0.29;75.40;96584.63;10292738;28;101360;-65
2021/12/20 18:39:03;;;;;;;20.98;12.45;;;;;;;-0.20;75.26;96596.19;10292475;28;99595;-66
2021/12/20 18:44:07;;;;;;;16.42;10.60;;;;;;;-0.20;75.18;96599.59;10317258;28;96757;-65
2021/12/20 18:49:12;;;;;;;17.67;10.88;;;;;;;-0.18;75.68;96595.22;10288911;28;98513;-66
2021/12/20 18:54:17;;;;;;;19.85;11.73;;;;;;;-0.17;75.57;96594.31;10291748;28;97079;-65
2021/12/20 18:59:21;;;;;;;16.80;10.40;;;;;;;-0.12;75.25;96591.53;10293116;28;97018;-66
2021/12/20 19:04:24;;;;;;;18.52;10.73;;;;;;;-0.14;75.23;96586.47;10290012;28;97265;-65
2021/12/20 19:09:28;;;;;;;17.38;9.90;;;;;;;-0.16;75.17;96583.13;10290672;28;96846;-65
2021/12/20 19:14:31;;;;;;;13.68;8.48;;;;;;;-0.17;74.96;96578.06;10290419;28;97343;-65
2021/12/20 19:19:34;;;;;;;16.15;9.50;;;;;;;-0.10;75.12;96579.44;10295034;28;97574;-65
2021/12/20 19:24:41;;;;;;;18.05;10.13;;;;;;;-0.07;74.16;96579.28;10289646;28;96865;-65
2021/12/20 19:29:44;;;;;;;17.00;9.55;;;;;;;-0.04;74.54;96589.44;10289967;28;96934;-65
2021/12/20 19:34:47;;;;;;;16.23;10.20;;;;;;;0.01;74.32;96582.31;10289926;28;96920;-66
2021/12/20 19:39:51;;;;;;;14.50;9.80;;;;;;;0.03;74.28;96583.06;10289855;28;96791;-65
2021/12/20 19:45:10;;;;;;;16.90;10.07;;;;;;;0.07;74.21;96577.81;10290987;28;98137;-65
2021/12/20 19:50:13;;;;;;;17.63;11.55;;;;;;;0.07;73.86;96581.19;10286157;28;97010;-65
2021/12/20 19:55:17;;;;;;;15.55;10.13;;;;;;;0.09;73.57;96571.66;10287049;28;100216;-65
2021/12/20 20:00:20;;;;;;;16.73;10.07;;;;;;;0.14;73.53;96567.13;10286589;28;96932;-65
2021/12/20 20:05:24;;;;;;;18.60;10.68;;;;;;;0.20;73.41;96573.69;10289931;28;96903;-65
2021/12/20 20:10:32;;;;;;;16.33;10.65;;;;;;;0.22;73.47;96577.06;10289804;28;96744;-65
2021/12/20 20:15:34;;;;;;;15.40;9.50;;;;;;;0.20;73.56;96581.41;10291786;28;102228;-65
2021/12/20 20:20:38;;;;;;;15.77;9.95;;;;;;;0.21;73.23;96572.81;10288640;28;97940;-65
2021/12/20 20:25:42;;;;;;;18.05;9.93;;;;;;;0.21;73.43;96567.66;10305520;28;96911;-65
2021/12/20 20:30:45;;;;;;;18.92;11.07;;;;;;;0.26;73.52;96570.84;10296623;28;96810;-65
2021/12/20 20:35:48;;;;;;;15.85;10.52;;;;;;;0.30;73.22;96559.50;10292035;28;97276;-65
2021/12/20 20:40:53;;;;;;;18.40;10.55;;;;;;;0.28;73.47;96558.75;10313501;28;96758;-65
2021/12/20 20:45:56;;;;;;;18.67;10.60;;;;;;;0.26;73.41;96555.41;10297600;28;100476;-65
2021/12/20 20:50:59;;;;;;;21.95;11.43;;;;;;;0.28;72.94;96543.31;10281035;28;99752;-65
2021/12/20 20:56:03;;;;;;;20.15;12.02;;;;;;;0.28;73.42;96548.47;10299654;28;97667;-64
2021/12/20 21:06:30;;;;;;;18.98;12.73;;;;;;;0.34;73.02;96558.44;10292013;28;96928;-65
2021/12/20 21:11:36;;;;;;;18.38;11.23;;;;;;;0.35;73.01;96549.81;10289418;28;97236;-65
2021/12/20 21:16:40;;;;;;;16.70;11.05;;;;;;;0.36;73.42;96556.63;10294164;28;97485;-65
2021/12/20 21:21:44;;;;;;;18.10;11.43;;;;;;;0.29;73.23;96557.84;10290440;28;97158;-65
2021/12/20 21:26:49;;;;;;;20.13;12.38;;;;;;;0.36;72.87;96551.50;10288786;28;96818;-65
2021/12/20 21:31:54;;;;;;;19.80;13.30;;;;;;;0.40;72.60;96552.97;10292326;28;97425;-65
2021/12/20 21:36:56;;;;;;;25.38;15.18;;;;;;;0.40;73.50;96547.84;10289476;28;99124;-65
2021/12/20 21:42:02;;;;;;;26.30;14.73;;;;;;;0.37;73.58;96553.13;10286359;28;99150;-65
2021/12/20 21:47:05;;;;;;;22.55;14.50;;;;;;;0.36;73.61;96556.63;10294781;28;97570;-65
2021/12/20 21:52:08;;;;;;;28.65;15.00;;;;;;;0.39;73.34;96559.06;10285772;28;100288;-65
2021/12/20 21:57:13;;;;;;;27.38;15.93;;;;;;;0.43;72.98;96555.41;10283976;28;97399;-65
2021/12/20 22:02:15;;;;;;;27.58;15.82;;;;;;;0.40;73.27;96549.59;10292569;28;97058;-65
2021/12/20 22:07:18;;;;;;;23.95;14.80;;;;;;;0.38;73.81;96543.69;10293861;28;97386;-65
2021/12/20 22:12:23;;;;;;;26.23;15.55;;;;;;;0.35;73.67;96549.81;10287182;28;96941;-65
2021/12/20 22:17:26;;;;;;;28.55;15.85;;;;;;;0.37;73.69;96558.28;10291578;28;96919;-65
2021/12/20 22:22:29;;;;;;;28.58;16.95;;;;;;;0.34;73.92;96547.31;10289961;28;97599;-65
2021/12/20 22:27:33;;;;;;;28.92;16.45;;;;;;;0.35;73.59;96549.81;10287129;28;97870;-65
2021/12/20 22:32:36;;;;;;;25.98;15.23;;;;;;;0.33;74.36;96550.81;10279418;28;96908;-64
2021/12/20 22:37:39;;;;;;;31.00;17.35;;;;;;;0.30;74.23;96549.22;10290965;28;97056;-65
2021/12/20 22:42:44;;;;;;;29.05;16.20;;;;;;;0.33;73.92;96551.63;10284342;28;97897;-65
2021/12/20 22:47:47;;;;;;;28.50;16.88;;;;;;;0.36;74.04;96551.50;10282639;28;96904;-65
2021/12/20 22:52:50;;;;;;;27.15;16.30;;;;;;;0.30;74.30;96551.78;10290521;28;97827;-65
2021/12/20 22:57:54;;;;;;;43.65;22.42;;;;;;;0.31;74.41;96557.78;10285171;28;96851;-65
2021/12/20 23:02:59;;;;;;;25.15;15.25;;;;;;;0.27;74.03;96561.38;10283310;28;97682;-65
2021/12/20 23:08:07;;;;;;;25.52;14.95;;;;;;;0.33;73.88;96556.78;10298751;28;98843;-65
2021/12/20 23:13:20;;;;;;;24.25;14.65;;;;;;;0.30;73.81;96562.06;10281841;28;97884;-65
2021/12/20 23:18:24;;;;;;;25.05;14.57;;;;;;;0.23;74.15;96553.81;10282717;28;96952;-65
2021/12/20 23:23:27;;;;;;;27.33;16.77;;;;;;;0.22;73.92;96553.94;10290592;28;96770;-65
2021/12/20 23:28:34;;;;;;;26.83;14.90;;;;;;;0.26;73.85;96555.41;10287033;28;96811;-65
2021/12/20 23:33:37;;;;;;;23.23;13.95;;;;;;;0.29;73.81;96562.97;10285684;28;96863;-65